Fort Good Hope Airport


Codes: CYGH/YGH
Name: Fort Good Hope Airport
City: Fort Good Hope
Country: Canada
Elevation: 268 ft.
Wikipedia:

Photos at Fort Good Hope Airport


   Photos courtesy of SpottingLog. You can add your own sightings and photos by signing up for a free trial today.



No photos found.

Weather at Fort Good Hope Airport


Time (UTC)DescriptionTempratureWindCloud coverageVisibilityPressureHumidity
16-Jun-2024 09:00Scattered Clouds9°C9 mph, E43%10000m1021hPa50%
16-Jun-2024 12:00Scattered Clouds9°C7 mph, E47%10000m1021hPa51%
16-Jun-2024 15:00Broken Clouds11°C7 mph, NE77%10000m1021hPa43%
16-Jun-2024 18:00Overcast Clouds16°C4 mph, N91%10000m1019hPa30%
16-Jun-2024 21:00Scattered Clouds19°C7 mph, NW32%10000m1017hPa22%
17-Jun-2024 00:00Few Clouds21°C9 mph, NW23%10000m1015hPa20%
17-Jun-2024 03:00Few Clouds20°C9 mph, NW13%10000m1014hPa21%
17-Jun-2024 06:00Scattered Clouds15°C4 mph, N39%10000m1013hPa36%
17-Jun-2024 09:00Overcast Clouds14°C2 mph, NE99%10000m1013hPa36%
17-Jun-2024 12:00Overcast Clouds14°C0 mph, SW100%10000m1012hPa51%
17-Jun-2024 15:00Overcast Clouds14°C9 mph, W100%10000m1012hPa52%
17-Jun-2024 18:00Overcast Clouds14°C13 mph, W100%10000m1013hPa62%
17-Jun-2024 21:00Overcast Clouds18°C9 mph, W100%10000m1012hPa49%
18-Jun-2024 00:00Overcast Clouds20°C9 mph, W97%10000m1010hPa39%
18-Jun-2024 03:00Overcast Clouds20°C7 mph, W97%10000m1009hPa40%
18-Jun-2024 06:00Overcast Clouds17°C4 mph, N98%10000m1009hPa47%
18-Jun-2024 09:00Overcast Clouds12°C7 mph, NE100%10000m1010hPa46%
18-Jun-2024 12:00Overcast Clouds12°C7 mph, NE100%10000m1010hPa50%
18-Jun-2024 15:00Overcast Clouds14°C2 mph, NW100%10000m1011hPa45%
18-Jun-2024 18:00Overcast Clouds17°C7 mph, W100%10000m1012hPa41%
18-Jun-2024 21:00Overcast Clouds14°C9 mph, SW94%10000m1012hPa61%
19-Jun-2024 00:00Broken Clouds19°C7 mph, SW83%10000m1011hPa45%
19-Jun-2024 03:00Few Clouds19°C4 mph, SW15%10000m1011hPa46%
19-Jun-2024 06:00Few Clouds16°C4 mph, SW12%10000m1011hPa66%
19-Jun-2024 09:00Clear Sky12°C2 mph, SW6%10000m1011hPa80%
19-Jun-2024 12:00Clear Sky13°C2 mph, S4%10000m1011hPa76%
19-Jun-2024 15:00Few Clouds17°C2 mph, SE13%10000m1011hPa57%
19-Jun-2024 18:00Scattered Clouds20°C4 mph, E48%10000m1011hPa44%
19-Jun-2024 21:00Overcast Clouds23°C4 mph, E96%10000m1010hPa34%
20-Jun-2024 00:00Broken Clouds24°C7 mph, NE75%10000m1009hPa30%
20-Jun-2024 03:00Broken Clouds22°C13 mph, NE63%10000m1009hPa35%
20-Jun-2024 06:00Broken Clouds18°C9 mph, NE82%10000m1009hPa47%
20-Jun-2024 09:00Overcast Clouds15°C9 mph, NE100%10000m1010hPa54%
20-Jun-2024 12:00Overcast Clouds15°C2 mph, NE100%10000m1011hPa56%
20-Jun-2024 15:00Overcast Clouds18°C7 mph, NE100%10000m1011hPa44%
20-Jun-2024 18:00Broken Clouds22°C4 mph, E69%10000m1011hPa35%
20-Jun-2024 21:00Broken Clouds24°C4 mph, S58%10000m1011hPa33%
21-Jun-2024 00:00Broken Clouds24°C2 mph, SE73%10000m1010hPa35%
21-Jun-2024 03:00Overcast Clouds23°C9 mph, SE100%10000m1010hPa42%
21-Jun-2024 06:00Broken Clouds19°C4 mph, SE84%10000m1010hPa55%